sensor_id;sensor_type;location;lat;lon;timestamp;pressure;altitude;pressure_sealevel;temperature;humidity
59829;BME280;45708;51.848;107.620;2023-05-31T00:02:45;93887.47;;;10.53;83.59
59829;BME280;45708;51.848;107.620;2023-05-31T00:07:45;93879.19;;;10.98;83.13
59829;BME280;45708;51.848;107.620;2023-05-31T00:12:46;93881.59;;;11.69;81.68
59829;BME280;45708;51.848;107.620;2023-05-31T00:17:47;93878.16;;;12.10;80.98
59829;BME280;45708;51.848;107.620;2023-05-31T00:22:48;93876.06;;;12.12;82.02
59829;BME280;45708;51.848;107.620;2023-05-31T00:27:49;93887.25;;;12.25;80.77
59829;BME280;45708;51.848;107.620;2023-05-31T00:32:49;93876.03;;;12.80;80.05
59829;BME280;45708;51.848;107.620;2023-05-31T00:37:50;93853.38;;;14.45;74.24
59829;BME280;45708;51.848;107.620;2023-05-31T00:42:51;93872.56;;;15.94;71.66
59829;BME280;45708;51.848;107.620;2023-05-31T00:47:52;93883.28;;;17.92;66.26
59829;BME280;45708;51.848;107.620;2023-05-31T00:52:54;93871.72;;;19.42;56.70
59829;BME280;45708;51.848;107.620;2023-05-31T00:57:57;93886.97;;;19.56;51.83
59829;BME280;45708;51.848;107.620;2023-05-31T01:02:58;93865.72;;;18.46;54.94
59829;BME280;45708;51.848;107.620;2023-05-31T01:07:59;93881.28;;;17.32;56.12
59829;BME280;45708;51.848;107.620;2023-05-31T01:13:07;93882.84;;;17.15;56.81
59829;BME280;45708;51.848;107.620;2023-05-31T01:18:22;93887.88;;;16.79;58.24
59829;BME280;45708;51.848;107.620;2023-05-31T01:28:55;93878.97;;;17.26;60.42
59829;BME280;45708;51.848;107.620;2023-05-31T01:33:56;93887.22;;;16.68;61.50
59829;BME280;45708;51.848;107.620;2023-05-31T01:38:57;93889.38;;;16.42;62.44
59829;BME280;45708;51.848;107.620;2023-05-31T01:44:02;93895.38;;;16.53;62.98
59829;BME280;45708;51.848;107.620;2023-05-31T01:49:03;93883.91;;;16.76;62.53
59829;BME280;45708;51.848;107.620;2023-05-31T01:54:04;93838.94;;;16.46;62.17
59829;BME280;45708;51.848;107.620;2023-05-31T01:59:06;93881.63;;;16.88;60.91
59829;BME280;45708;51.848;107.620;2023-05-31T02:04:07;93896.50;;;17.32;57.10
59829;BME280;45708;51.848;107.620;2023-05-31T02:09:08;93896.94;;;17.90;57.79
59829;BME280;45708;51.848;107.620;2023-05-31T02:14:09;93893.63;;;18.40;57.24
59829;BME280;45708;51.848;107.620;2023-05-31T02:19:10;93902.81;;;19.30;58.17
59829;BME280;45708;51.848;107.620;2023-05-31T02:24:11;93898.13;;;19.35;54.62
59829;BME280;45708;51.848;107.620;2023-05-31T02:29:12;93893.00;;;19.25;54.16
59829;BME280;45708;51.848;107.620;2023-05-31T02:34:12;93904.19;;;20.08;52.92
59829;BME280;45708;51.848;107.620;2023-05-31T02:39:13;93900.88;;;21.56;51.35
59829;BME280;45708;51.848;107.620;2023-05-31T02:44:14;93904.47;;;22.29;48.78
59829;BME280;45708;51.848;107.620;2023-05-31T02:49:15;93907.50;;;21.41;49.07
59829;BME280;45708;51.848;107.620;2023-05-31T02:54:15;93863.50;;;20.85;50.58
59829;BME280;45708;51.848;107.620;2023-05-31T02:59:16;93914.03;;;20.92;49.95
59829;BME280;45708;51.848;107.620;2023-05-31T03:04:17;93901.13;;;20.54;53.20
59829;BME280;45708;51.848;107.620;2023-05-31T03:09:18;93904.88;;;19.91;50.99
59829;BME280;45708;51.848;107.620;2023-05-31T03:14:19;93911.94;;;19.65;50.35
59829;BME280;45708;51.848;107.620;2023-05-31T03:19:20;93915.91;;;19.67;51.92
59829;BME280;45708;51.848;107.620;2023-05-31T03:24:20;93921.13;;;19.72;52.04
59829;BME280;45708;51.848;107.620;2023-05-31T03:29:21;93911.81;;;19.70;52.32
59829;BME280;45708;51.848;107.620;2023-05-31T03:34:22;93925.84;;;19.67;50.47
59829;BME280;45708;51.848;107.620;2023-05-31T03:39:23;93906.94;;;19.72;50.79
59829;BME280;45708;51.848;107.620;2023-05-31T03:44:24;93906.66;;;20.27;49.00
59829;BME280;45708;51.848;107.620;2023-05-31T03:49:24;93906.78;;;20.44;48.16
59829;BME280;45708;51.848;107.620;2023-05-31T03:54:25;93897.97;;;20.52;46.46
59829;BME280;45708;51.848;107.620;2023-05-31T03:59:26;93901.50;;;20.70;44.48
59829;BME280;45708;51.848;107.620;2023-05-31T04:04:27;93902.09;;;20.58;41.89
59829;BME280;45708;51.848;107.620;2023-05-31T04:09:27;93898.72;;;20.22;40.95
59829;BME280;45708;51.848;107.620;2023-05-31T04:14:28;93895.50;;;20.02;40.14
59829;BME280;45708;51.848;107.620;2023-05-31T04:19:29;93891.28;;;20.10;39.86
59829;BME280;45708;51.848;107.620;2023-05-31T04:24:30;93879.22;;;20.30;37.97
59829;BME280;45708;51.848;107.620;2023-05-31T04:29:31;93892.16;;;20.59;38.00
59829;BME280;45708;51.848;107.620;2023-05-31T04:34:31;93877.78;;;20.55;37.50
59829;BME280;45708;51.848;107.620;2023-05-31T04:39:32;93894.50;;;20.60;36.11
59829;BME280;45708;51.848;107.620;2023-05-31T04:44:33;93900.38;;;20.31;36.42
59829;BME280;45708;51.848;107.620;2023-05-31T04:49:34;93898.38;;;20.15;37.22
59829;BME280;45708;51.848;107.620;2023-05-31T04:54:35;93885.47;;;20.17;37.09
59829;BME280;45708;51.848;107.620;2023-05-31T04:59:35;93890.38;;;19.92;37.54
59829;BME280;45708;51.848;107.620;2023-05-31T05:04:36;93907.50;;;19.83;37.34
59829;BME280;45708;51.848;107.620;2023-05-31T05:09:37;93891.47;;;19.69;37.91
59829;BME280;45708;51.848;107.620;2023-05-31T05:14:38;93894.53;;;19.76;37.51
59829;BME280;45708;51.848;107.620;2023-05-31T05:19:39;93903.44;;;19.63;37.73
59829;BME280;45708;51.848;107.620;2023-05-31T05:24:40;93894.00;;;19.52;37.69
59829;BME280;45708;51.848;107.620;2023-05-31T05:29:40;93900.13;;;19.66;37.48
59829;BME280;45708;51.848;107.620;2023-05-31T05:34:41;93891.34;;;19.74;36.96
59829;BME280;45708;51.848;107.620;2023-05-31T05:39:42;93905.00;;;19.86;36.65
59829;BME280;45708;51.848;107.620;2023-05-31T05:44:43;93895.19;;;19.82;36.53
59829;BME280;45708;51.848;107.620;2023-05-31T05:49:43;93878.44;;;19.54;36.29
59829;BME280;45708;51.848;107.620;2023-05-31T05:54:44;93882.06;;;19.35;36.64
59829;BME280;45708;51.848;107.620;2023-05-31T05:59:45;93876.91;;;19.61;35.93
59829;BME280;45708;51.848;107.620;2023-05-31T06:04:46;93887.34;;;19.63;35.17
59829;BME280;45708;51.848;107.620;2023-05-31T06:09:47;93868.44;;;19.45;34.65
59829;BME280;45708;51.848;107.620;2023-05-31T06:14:48;93890.38;;;19.92;33.50
59829;BME280;45708;51.848;107.620;2023-05-31T06:19:48;93891.72;;;19.81;32.98
59829;BME280;45708;51.848;107.620;2023-05-31T06:24:49;93892.69;;;20.08;32.43
59829;BME280;45708;51.848;107.620;2023-05-31T06:29:50;93889.34;;;20.33;31.83
59829;BME280;45708;51.848;107.620;2023-05-31T06:34:51;93891.03;;;20.51;31.69
59829;BME280;45708;51.848;107.620;2023-05-31T06:39:52;93887.09;;;20.57;31.75
59829;BME280;45708;51.848;107.620;2023-05-31T06:44:53;93876.88;;;20.37;31.75
59829;BME280;45708;51.848;107.620;2023-05-31T06:49:54;93885.13;;;20.10;31.90
59829;BME280;45708;51.848;107.620;2023-05-31T06:54:55;93882.34;;;19.92;32.61
59829;BME280;45708;51.848;107.620;2023-05-31T06:59:56;93879.06;;;20.26;32.71
59829;BME280;45708;51.848;107.620;2023-05-31T07:04:56;93876.34;;;20.49;31.60
59829;BME280;45708;51.848;107.620;2023-05-31T07:09:57;93877.13;;;20.49;31.57
59829;BME280;45708;51.848;107.620;2023-05-31T07:14:58;93880.63;;;20.27;31.34
59829;BME280;45708;51.848;107.620;2023-05-31T07:19:59;93896.47;;;20.07;31.60
59829;BME280;45708;51.848;107.620;2023-05-31T07:25:00;93890.25;;;19.75;31.68
59829;BME280;45708;51.848;107.620;2023-05-31T07:30:00;93879.91;;;19.82;31.01
59829;BME280;45708;51.848;107.620;2023-05-31T07:35:02;93895.56;;;19.89;31.33
59829;BME280;45708;51.848;107.620;2023-05-31T07:40:03;93868.31;;;19.95;29.99
59829;BME280;45708;51.848;107.620;2023-05-31T07:45:06;93874.13;;;19.89;30.34
59829;BME280;45708;51.848;107.620;2023-05-31T07:50:08;93869.66;;;20.07;30.18
59829;BME280;45708;51.848;107.620;2023-05-31T07:55:09;93887.41;;;20.25;30.90
59829;BME280;45708;51.848;107.620;2023-05-31T08:00:10;93909.72;;;20.12;31.49
59829;BME280;45708;51.848;107.620;2023-05-31T08:05:12;93892.56;;;19.90;31.26
59829;BME280;45708;51.848;107.620;2023-05-31T08:10:13;93891.16;;;19.93;31.38
59829;BME280;45708;51.848;107.620;2023-05-31T08:15:14;93890.56;;;20.27;31.16
59829;BME280;45708;51.848;107.620;2023-05-31T08:20:15;93902.34;;;20.17;31.42
59829;BME280;45708;51.848;107.620;2023-05-31T08:25:16;93922.81;;;20.13;31.17
59829;BME280;45708;51.848;107.620;2023-05-31T08:30:17;93928.56;;;19.98;31.40
59829;BME280;45708;51.848;107.620;2023-05-31T08:35:17;93919.50;;;19.85;31.38
59829;BME280;45708;51.848;107.620;2023-05-31T08:40:18;93935.31;;;19.73;31.02
59829;BME280;45708;51.848;107.620;2023-05-31T08:45:19;93939.31;;;19.62;31.24
59829;BME280;45708;51.848;107.620;2023-05-31T08:50:21;93933.59;;;19.55;31.31
59829;BME280;45708;51.848;107.620;2023-05-31T08:55:23;93933.13;;;19.39;31.35
59829;BME280;45708;51.848;107.620;2023-05-31T09:00:24;93939.50;;;19.29;31.14
59829;BME280;45708;51.848;107.620;2023-05-31T09:05:25;93933.28;;;19.06;30.14
59829;BME280;45708;51.848;107.620;2023-05-31T09:10:26;93928.44;;;18.81;30.36
59829;BME280;45708;51.848;107.620;2023-05-31T09:15:27;93930.13;;;18.91;29.70
59829;BME280;45708;51.848;107.620;2023-05-31T09:20:32;93936.47;;;18.67;29.43
59829;BME280;45708;51.848;107.620;2023-05-31T09:25:49;93939.41;;;18.52;29.24
59829;BME280;45708;51.848;107.620;2023-05-31T09:31:08;93945.88;;;18.18;28.85
59829;BME280;45708;51.848;107.620;2023-05-31T09:36:10;93942.06;;;17.92;29.20
59829;BME280;45708;51.848;107.620;2023-05-31T09:46:22;93938.59;;;17.91;29.16
59829;BME280;45708;51.848;107.620;2023-05-31T09:51:24;93932.69;;;17.76;29.19
59829;BME280;45708;51.848;107.620;2023-05-31T09:56:27;93919.53;;;17.60;29.63
59829;BME280;45708;51.848;107.620;2023-05-31T10:01:28;93957.63;;;17.71;29.72
59829;BME280;45708;51.848;107.620;2023-05-31T10:06:30;93963.34;;;17.41;29.94
59829;BME280;45708;51.848;107.620;2023-05-31T10:11:41;93959.75;;;17.31;30.50
59829;BME280;45708;51.848;107.620;2023-05-31T10:16:45;93987.34;;;17.22;30.29
59829;BME280;45708;51.848;107.620;2023-05-31T10:21:49;93978.16;;;16.90;31.16
59829;BME280;45708;51.848;107.620;2023-05-31T10:27:00;93991.06;;;16.83;32.42
59829;BME280;45708;51.848;107.620;2023-05-31T10:32:24;93995.97;;;16.71;32.96
59829;BME280;45708;51.848;107.620;2023-05-31T10:37:26;94008.91;;;16.54;33.60
59829;BME280;45708;51.848;107.620;2023-05-31T10:42:56;94015.38;;;16.48;34.89
59829;BME280;45708;51.848;107.620;2023-05-31T10:53:44;94030.91;;;16.40;36.53
59829;BME280;45708;51.848;107.620;2023-05-31T10:58:50;94029.88;;;16.36;37.29
59829;BME280;45708;51.848;107.620;2023-05-31T11:03:52;94050.72;;;16.29;37.51
59829;BME280;45708;51.848;107.620;2023-05-31T11:09:10;94066.63;;;16.39;37.35
59829;BME280;45708;51.848;107.620;2023-05-31T11:24:36;94083.84;;;16.23;37.36
59829;BME280;45708;51.848;107.620;2023-05-31T11:34:55;94101.03;;;15.97;38.49
59829;BME280;45708;51.848;107.620;2023-05-31T11:40:00;94090.00;;;15.74;39.09
59829;BME280;45708;51.848;107.620;2023-05-31T11:45:06;94123.50;;;15.80;38.97
59829;BME280;45708;51.848;107.620;2023-05-31T11:50:10;94112.97;;;15.55;39.76
59829;BME280;45708;51.848;107.620;2023-05-31T11:55:14;94128.44;;;15.48;41.15
59829;BME280;45708;51.848;107.620;2023-05-31T12:00:15;94140.72;;;15.34;42.10
59829;BME280;45708;51.848;107.620;2023-05-31T12:05:16;94150.84;;;15.21;43.46
59829;BME280;45708;51.848;107.620;2023-05-31T12:10:17;94144.53;;;15.02;44.09
59829;BME280;45708;51.848;107.620;2023-05-31T12:15:18;94165.28;;;14.95;44.98
59829;BME280;45708;51.848;107.620;2023-05-31T12:20:19;94188.69;;;14.88;45.02
59829;BME280;45708;51.848;107.620;2023-05-31T12:25:20;94173.81;;;14.67;46.50
59829;BME280;45708;51.848;107.620;2023-05-31T12:30:21;94194.00;;;14.52;47.20
59829;BME280;45708;51.848;107.620;2023-05-31T12:35:22;94200.84;;;14.33;47.65
59829;BME280;45708;51.848;107.620;2023-05-31T12:40:22;94225.28;;;14.25;48.18
59829;BME280;45708;51.848;107.620;2023-05-31T12:45:23;94231.34;;;14.15;48.97
59829;BME280;45708;51.848;107.620;2023-05-31T12:50:28;94244.38;;;14.07;49.48
59829;BME280;45708;51.848;107.620;2023-05-31T12:55:30;94254.41;;;13.99;49.71
59829;BME280;45708;51.848;107.620;2023-05-31T13:00:32;94249.00;;;13.79;50.36
59829;BME280;45708;51.848;107.620;2023-05-31T13:05:33;94265.97;;;13.73;50.75
59829;BME280;45708;51.848;107.620;2023-05-31T13:10:34;94268.34;;;13.64;51.04
59829;BME280;45708;51.848;107.620;2023-05-31T13:15:35;94290.41;;;13.75;50.96
59829;BME280;45708;51.848;107.620;2023-05-31T13:20:36;94287.41;;;13.61;51.32
59829;BME280;45708;51.848;107.620;2023-05-31T13:25:38;94275.41;;;13.49;51.38
59829;BME280;45708;51.848;107.620;2023-05-31T13:30:39;94315.22;;;13.54;51.87
59829;BME280;45708;51.848;107.620;2023-05-31T13:35:39;94322.09;;;13.50;52.30
59829;BME280;45708;51.848;107.620;2023-05-31T13:40:40;94314.28;;;13.33;52.78
59829;BME280;45708;51.848;107.620;2023-05-31T13:45:41;94324.03;;;13.22;53.04
59829;BME280;45708;51.848;107.620;2023-05-31T13:50:42;94332.47;;;13.19;53.38
59829;BME280;45708;51.848;107.620;2023-05-31T13:55:43;94318.59;;;13.07;53.39
59829;BME280;45708;51.848;107.620;2023-05-31T14:00:44;94316.91;;;13.01;53.65
59829;BME280;45708;51.848;107.620;2023-05-31T14:05:45;94339.66;;;12.92;54.49
59829;BME280;45708;51.848;107.620;2023-05-31T14:10:46;94350.25;;;12.92;54.14
59829;BME280;45708;51.848;107.620;2023-05-31T14:15:46;94348.38;;;12.87;54.53
59829;BME280;45708;51.848;107.620;2023-05-31T14:20:49;94347.44;;;12.76;55.11
59829;BME280;45708;51.848;107.620;2023-05-31T14:25:50;94358.50;;;12.68;54.96
59829;BME280;45708;51.848;107.620;2023-05-31T14:30:51;94347.75;;;12.53;55.00
59829;BME280;45708;51.848;107.620;2023-05-31T14:35:52;94383.34;;;12.62;55.35
59829;BME280;45708;51.848;107.620;2023-05-31T14:40:53;94385.44;;;12.60;55.80
59829;BME280;45708;51.848;107.620;2023-05-31T14:45:53;94399.13;;;12.52;56.38
59829;BME280;45708;51.848;107.620;2023-05-31T14:50:54;94403.03;;;12.44;56.18
59829;BME280;45708;51.848;107.620;2023-05-31T14:55:55;94384.94;;;12.19;56.47
59829;BME280;45708;51.848;107.620;2023-05-31T15:00:56;94405.78;;;12.33;56.72
59829;BME280;45708;51.848;107.620;2023-05-31T15:05:57;94357.75;;;12.02;56.75
59829;BME280;45708;51.848;107.620;2023-05-31T15:10:57;94412.06;;;12.27;56.78
59829;BME280;45708;51.848;107.620;2023-05-31T15:15:58;94411.91;;;12.16;56.96
59829;BME280;45708;51.848;107.620;2023-05-31T15:20:59;94403.22;;;11.99;57.58
59829;BME280;45708;51.848;107.620;2023-05-31T15:26:00;94402.09;;;11.95;57.80
59829;BME280;45708;51.848;107.620;2023-05-31T15:31:01;94409.75;;;11.92;58.06
59829;BME280;45708;51.848;107.620;2023-05-31T15:36:02;94399.34;;;11.85;58.21
59829;BME280;45708;51.848;107.620;2023-05-31T15:41:03;94403.81;;;11.84;57.86
59829;BME280;45708;51.848;107.620;2023-05-31T15:46:03;94406.22;;;11.86;57.79
59829;BME280;45708;51.848;107.620;2023-05-31T15:51:04;94393.84;;;11.75;58.33
59829;BME280;45708;51.848;107.620;2023-05-31T15:56:05;94400.66;;;11.71;58.46
59829;BME280;45708;51.848;107.620;2023-05-31T16:01:06;94393.06;;;11.57;58.67
59829;BME280;45708;51.848;107.620;2023-05-31T16:06:07;94398.03;;;11.54;59.01
59829;BME280;45708;51.848;107.620;2023-05-31T16:11:07;94393.97;;;11.46;59.22
59829;BME280;45708;51.848;107.620;2023-05-31T16:16:08;94402.75;;;11.35;59.51
59829;BME280;45708;51.848;107.620;2023-05-31T16:21:09;94398.03;;;11.37;58.68
59829;BME280;45708;51.848;107.620;2023-05-31T16:26:10;94393.53;;;11.21;58.32
59829;BME280;45708;51.848;107.620;2023-05-31T16:31:11;94419.41;;;11.19;59.34
59829;BME280;45708;51.848;107.620;2023-05-31T16:36:12;94420.78;;;11.05;59.71
59829;BME280;45708;51.848;107.620;2023-05-31T16:41:12;94416.75;;;11.19;59.41
59829;BME280;45708;51.848;107.620;2023-05-31T16:46:13;94427.81;;;11.16;59.75
59829;BME280;45708;51.848;107.620;2023-05-31T16:51:14;94442.41;;;11.02;60.68
59829;BME280;45708;51.848;107.620;2023-05-31T16:56:15;94402.44;;;10.70;60.78
59829;BME280;45708;51.848;107.620;2023-05-31T17:01:16;94418.03;;;10.71;60.85
59829;BME280;45708;51.848;107.620;2023-05-31T17:06:20;94429.63;;;10.70;61.41
59829;BME280;45708;51.848;107.620;2023-05-31T17:11:21;94441.34;;;10.74;60.71
59829;BME280;45708;51.848;107.620;2023-05-31T17:16:22;94394.13;;;10.38;60.77
59829;BME280;45708;51.848;107.620;2023-05-31T17:21:23;94416.75;;;10.45;62.22
59829;BME280;45708;51.848;107.620;2023-05-31T17:26:24;94413.88;;;10.47;61.02
59829;BME280;45708;51.848;107.620;2023-05-31T17:31:25;94432.47;;;10.52;61.48
59829;BME280;45708;51.848;107.620;2023-05-31T17:36:26;94432.25;;;10.42;60.91
59829;BME280;45708;51.848;107.620;2023-05-31T17:41:27;94446.75;;;10.27;62.22
59829;BME280;45708;51.848;107.620;2023-05-31T17:46:27;94434.22;;;10.11;62.49
59829;BME280;45708;51.848;107.620;2023-05-31T17:51:28;94434.13;;;9.94;63.16
59829;BME280;45708;51.848;107.620;2023-05-31T17:56:29;94429.53;;;9.90;62.55
59829;BME280;45708;51.848;107.620;2023-05-31T18:01:30;94444.91;;;9.93;62.77
59829;BME280;45708;51.848;107.620;2023-05-31T18:06:30;94439.88;;;10.03;61.93
59829;BME280;45708;51.848;107.620;2023-05-31T18:11:31;94441.72;;;10.02;62.15
59829;BME280;45708;51.848;107.620;2023-05-31T18:16:32;94435.16;;;9.93;62.68
59829;BME280;45708;51.848;107.620;2023-05-31T18:21:33;94442.63;;;9.85;62.37
59829;BME280;45708;51.848;107.620;2023-05-31T18:26:34;94440.88;;;9.79;63.36
59829;BME280;45708;51.848;107.620;2023-05-31T18:31:35;94426.34;;;9.88;62.77
59829;BME280;45708;51.848;107.620;2023-05-31T18:36:36;94417.63;;;9.87;61.99
59829;BME280;45708;51.848;107.620;2023-05-31T18:41:37;94438.59;;;9.94;62.60
59829;BME280;45708;51.848;107.620;2023-05-31T18:46:38;94444.69;;;9.94;62.17
59829;BME280;45708;51.848;107.620;2023-05-31T18:51:38;94446.50;;;9.94;62.20
59829;BME280;45708;51.848;107.620;2023-05-31T18:56:39;94449.16;;;9.94;62.76
59829;BME280;45708;51.848;107.620;2023-05-31T19:01:40;94430.09;;;9.80;62.86
59829;BME280;45708;51.848;107.620;2023-05-31T19:06:41;94461.56;;;9.82;62.91
59829;BME280;45708;51.848;107.620;2023-05-31T19:11:42;94450.66;;;9.90;61.57
59829;BME280;45708;51.848;107.620;2023-05-31T19:16:43;94445.47;;;10.06;61.53
59829;BME280;45708;51.848;107.620;2023-05-31T19:21:44;94452.22;;;10.14;61.60
59829;BME280;45708;51.848;107.620;2023-05-31T19:26:45;94459.56;;;10.35;61.19
59829;BME280;45708;51.848;107.620;2023-05-31T19:31:45;94457.63;;;10.43;61.10
59829;BME280;45708;51.848;107.620;2023-05-31T19:36:46;94462.31;;;10.41;61.31
59829;BME280;45708;51.848;107.620;2023-05-31T19:41:47;94448.81;;;10.25;61.32
59829;BME280;45708;51.848;107.620;2023-05-31T19:46:48;94475.22;;;10.25;62.55
59829;BME280;45708;51.848;107.620;2023-05-31T19:51:49;94475.22;;;10.25;62.38
59829;BME280;45708;51.848;107.620;2023-05-31T19:56:49;94471.44;;;10.21;63.07
59829;BME280;45708;51.848;107.620;2023-05-31T20:01:50;94482.31;;;10.13;63.26
59829;BME280;45708;51.848;107.620;2023-05-31T20:06:52;94481.75;;;10.23;62.73
59829;BME280;45708;51.848;107.620;2023-05-31T20:11:53;94468.41;;;10.18;61.99
59829;BME280;45708;51.848;107.620;2023-05-31T20:16:53;94476.34;;;10.29;62.00
59829;BME280;45708;51.848;107.620;2023-05-31T20:21:54;94487.34;;;10.38;62.56
59829;BME280;45708;51.848;107.620;2023-05-31T20:26:55;94491.03;;;10.49;61.50
59829;BME280;45708;51.848;107.620;2023-05-31T20:31:57;94487.38;;;10.26;62.51
59829;BME280;45708;51.848;107.620;2023-05-31T20:36:58;94480.97;;;10.22;63.23
59829;BME280;45708;51.848;107.620;2023-05-31T20:41:58;94440.53;;;10.10;63.62
59829;BME280;45708;51.848;107.620;2023-05-31T20:46:59;94492.63;;;10.38;63.46
59829;BME280;45708;51.848;107.620;2023-05-31T20:52:00;94500.22;;;10.34;63.63
59829;BME280;45708;51.848;107.620;2023-05-31T20:57:01;94506.44;;;10.28;63.67
59829;BME280;45708;51.848;107.620;2023-05-31T21:02:02;94511.09;;;10.38;63.69
59829;BME280;45708;51.848;107.620;2023-05-31T21:07:03;94462.59;;;10.04;63.73
59829;BME280;45708;51.848;107.620;2023-05-31T21:12:05;94487.47;;;10.31;63.74
59829;BME280;45708;51.848;107.620;2023-05-31T21:17:06;94542.44;;;10.70;64.05
59829;BME280;45708;51.848;107.620;2023-05-31T21:22:07;94538.41;;;10.67;63.93
59829;BME280;45708;51.848;107.620;2023-05-31T21:27:08;94533.44;;;10.82;63.04
59829;BME280;45708;51.848;107.620;2023-05-31T21:32:08;94558.00;;;10.94;63.33
59829;BME280;45708;51.848;107.620;2023-05-31T21:37:09;94549.72;;;10.91;62.94
59829;BME280;45708;51.848;107.620;2023-05-31T21:42:11;94564.88;;;10.95;63.62
59829;BME280;45708;51.848;107.620;2023-05-31T21:47:12;94538.34;;;10.90;63.89
59829;BME280;45708;51.848;107.620;2023-05-31T21:52:13;94545.81;;;10.93;63.71
59829;BME280;45708;51.848;107.620;2023-05-31T21:57:14;94553.09;;;11.15;63.98
59829;BME280;45708;51.848;107.620;2023-05-31T22:02:14;94568.78;;;11.33;63.40
59829;BME280;45708;51.848;107.620;2023-05-31T22:07:15;94574.53;;;11.58;62.94
59829;BME280;45708;51.848;107.620;2023-05-31T22:12:16;94578.25;;;11.86;62.57
59829;BME280;45708;51.848;107.620;2023-05-31T22:17:17;94562.84;;;13.32;58.99
59829;BME280;45708;51.848;107.620;2023-05-31T22:22:18;94579.78;;;15.39;53.34
59829;BME280;45708;51.848;107.620;2023-05-31T22:27:18;94580.00;;;16.51;50.25
59829;BME280;45708;51.848;107.620;2023-05-31T22:32:19;94575.59;;;17.26;48.25
59829;BME280;45708;51.848;107.620;2023-05-31T22:37:21;94599.84;;;17.99;46.40
59829;BME280;45708;51.848;107.620;2023-05-31T22:42:22;94597.53;;;18.21;45.13
59829;BME280;45708;51.848;107.620;2023-05-31T22:47:22;94613.84;;;18.25;44.74
59829;BME280;45708;51.848;107.620;2023-05-31T22:52:23;94603.13;;;19.70;42.27
59829;BME280;45708;51.848;107.620;2023-05-31T22:57:24;94604.22;;;21.09;39.33
59829;BME280;45708;51.848;107.620;2023-05-31T23:02:25;94600.84;;;22.00;38.05
59829;BME280;45708;51.848;107.620;2023-05-31T23:07:25;94598.69;;;22.60;36.63
59829;BME280;45708;51.848;107.620;2023-05-31T23:12:29;94599.84;;;22.23;36.18
59829;BME280;45708;51.848;107.620;2023-05-31T23:17:34;94612.63;;;21.76;36.13
59829;BME280;45708;51.848;107.620;2023-05-31T23:22:35;94618.66;;;22.23;35.36
59829;BME280;45708;51.848;107.620;2023-05-31T23:27:36;94618.34;;;23.05;33.93
59829;BME280;45708;51.848;107.620;2023-05-31T23:32:38;94622.63;;;23.69;33.08
59829;BME280;45708;51.848;107.620;2023-05-31T23:37:39;94622.19;;;23.44;32.82
59829;BME280;45708;51.848;107.620;2023-05-31T23:42:40;94631.56;;;23.95;31.67
59829;BME280;45708;51.848;107.620;2023-05-31T23:47:41;94622.13;;;24.58;31.41
59829;BME280;45708;51.848;107.620;2023-05-31T23:52:42;94631.50;;;24.52;31.09
59829;BME280;45708;51.848;107.620;2023-05-31T23:57:42;94624.69;;;24.46;31.09
